sensor_id;sensor_type;location;lat;lon;timestamp;P1;durP1;ratioP1;P2;durP2;ratioP2
50337;SDS011;46221;51.178;5.900;2024-01-06T00:02:06;3.97;;;2.50;;
50337;SDS011;46221;51.178;5.900;2024-01-06T00:04:32;4.00;;;2.65;;
50337;SDS011;46221;51.178;5.900;2024-01-06T00:06:59;5.07;;;3.03;;
50337;SDS011;46221;51.178;5.900;2024-01-06T00:09:25;4.82;;;3.33;;
50337;SDS011;46221;51.178;5.900;2024-01-06T00:11:52;5.35;;;3.20;;
50337;SDS011;46221;51.178;5.900;2024-01-06T00:14:18;5.00;;;3.40;;
50337;SDS011;46221;51.178;5.900;2024-01-06T00:16:45;5.07;;;3.17;;
50337;SDS011;46221;51.178;5.900;2024-01-06T00:19:11;5.32;;;3.30;;
50337;SDS011;46221;51.178;5.900;2024-01-06T00:21:38;5.43;;;3.38;;
50337;SDS011;46221;51.178;5.900;2024-01-06T00:24:05;5.85;;;3.58;;
50337;SDS011;46221;51.178;5.900;2024-01-06T00:26:31;4.13;;;3.03;;
50337;SDS011;46221;51.178;5.900;2024-01-06T00:28:58;6.35;;;3.55;;
50337;SDS011;46221;51.178;5.900;2024-01-06T00:31:24;6.10;;;4.10;;
50337;SDS011;46221;51.178;5.900;2024-01-06T00:33:51;6.28;;;3.55;;
50337;SDS011;46221;51.178;5.900;2024-01-06T00:36:17;5.10;;;3.58;;
50337;SDS011;46221;51.178;5.900;2024-01-06T00:38:44;7.10;;;3.88;;
50337;SDS011;46221;51.178;5.900;2024-01-06T00:41:10;5.90;;;3.53;;
50337;SDS011;46221;51.178;5.900;2024-01-06T00:43:37;6.85;;;3.90;;
50337;SDS011;46221;51.178;5.900;2024-01-06T00:46:03;5.40;;;3.78;;
50337;SDS011;46221;51.178;5.900;2024-01-06T00:48:30;4.55;;;3.53;;
50337;SDS011;46221;51.178;5.900;2024-01-06T00:50:56;6.10;;;3.90;;
50337;SDS011;46221;51.178;5.900;2024-01-06T00:53:23;5.13;;;3.50;;
50337;SDS011;46221;51.178;5.900;2024-01-06T00:55:49;6.60;;;4.05;;
50337;SDS011;46221;51.178;5.900;2024-01-06T00:58:15;5.63;;;3.47;;
50337;SDS011;46221;51.178;5.900;2024-01-06T01:00:42;5.28;;;3.83;;
50337;SDS011;46221;51.178;5.900;2024-01-06T01:03:08;5.70;;;3.65;;
50337;SDS011;46221;51.178;5.900;2024-01-06T01:05:35;7.38;;;4.65;;
50337;SDS011;46221;51.178;5.900;2024-01-06T01:08:01;6.72;;;4.18;;
50337;SDS011;46221;51.178;5.900;2024-01-06T01:10:28;5.15;;;3.80;;
50337;SDS011;46221;51.178;5.900;2024-01-06T01:12:54;7.25;;;5.13;;
50337;SDS011;46221;51.178;5.900;2024-01-06T01:15:21;5.82;;;4.43;;
50337;SDS011;46221;51.178;5.900;2024-01-06T01:17:47;6.05;;;4.20;;
50337;SDS011;46221;51.178;5.900;2024-01-06T01:20:14;5.43;;;4.25;;
50337;SDS011;46221;51.178;5.900;2024-01-06T01:22:40;5.53;;;4.30;;
50337;SDS011;46221;51.178;5.900;2024-01-06T01:25:07;5.78;;;4.15;;
50337;SDS011;46221;51.178;5.900;2024-01-06T01:27:34;4.88;;;3.80;;
50337;SDS011;46221;51.178;5.900;2024-01-06T01:30:00;6.88;;;4.20;;
50337;SDS011;46221;51.178;5.900;2024-01-06T01:32:27;6.53;;;4.40;;
50337;SDS011;46221;51.178;5.900;2024-01-06T01:34:54;7.15;;;4.40;;
50337;SDS011;46221;51.178;5.900;2024-01-06T01:37:21;6.25;;;4.47;;
50337;SDS011;46221;51.178;5.900;2024-01-06T01:39:47;5.82;;;3.83;;
50337;SDS011;46221;51.178;5.900;2024-01-06T01:42:14;6.35;;;4.38;;
50337;SDS011;46221;51.178;5.900;2024-01-06T01:44:40;5.70;;;4.03;;
50337;SDS011;46221;51.178;5.900;2024-01-06T01:47:07;5.30;;;4.00;;
50337;SDS011;46221;51.178;5.900;2024-01-06T01:49:33;7.10;;;4.32;;
50337;SDS011;46221;51.178;5.900;2024-01-06T01:52:00;5.60;;;3.80;;
50337;SDS011;46221;51.178;5.900;2024-01-06T01:54:27;5.45;;;3.75;;
50337;SDS011;46221;51.178;5.900;2024-01-06T01:56:53;5.97;;;3.97;;
50337;SDS011;46221;51.178;5.900;2024-01-06T01:59:20;5.15;;;3.70;;
50337;SDS011;46221;51.178;5.900;2024-01-06T02:01:47;5.50;;;4.10;;
50337;SDS011;46221;51.178;5.900;2024-01-06T02:04:14;6.57;;;4.53;;
50337;SDS011;46221;51.178;5.900;2024-01-06T02:06:40;6.18;;;4.07;;
50337;SDS011;46221;51.178;5.900;2024-01-06T02:09:07;5.70;;;3.67;;
50337;SDS011;46221;51.178;5.900;2024-01-06T02:11:33;6.75;;;4.20;;
50337;SDS011;46221;51.178;5.900;2024-01-06T02:14:00;5.35;;;3.85;;
50337;SDS011;46221;51.178;5.900;2024-01-06T02:16:27;6.15;;;4.25;;
50337;SDS011;46221;51.178;5.900;2024-01-06T02:18:53;6.25;;;3.38;;
50337;SDS011;46221;51.178;5.900;2024-01-06T02:21:20;5.38;;;3.78;;
50337;SDS011;46221;51.178;5.900;2024-01-06T02:23:47;6.93;;;4.40;;
50337;SDS011;46221;51.178;5.900;2024-01-06T02:26:16;6.30;;;4.15;;
50337;SDS011;46221;51.178;5.900;2024-01-06T02:28:42;8.30;;;3.88;;
50337;SDS011;46221;51.178;5.900;2024-01-06T02:31:14;5.47;;;3.78;;
50337;SDS011;46221;51.178;5.900;2024-01-06T02:33:40;6.10;;;4.00;;
50337;SDS011;46221;51.178;5.900;2024-01-06T02:36:07;6.10;;;4.35;;
50337;SDS011;46221;51.178;5.900;2024-01-06T02:38:33;5.28;;;3.80;;
50337;SDS011;46221;51.178;5.900;2024-01-06T02:41:00;5.75;;;4.55;;
50337;SDS011;46221;51.178;5.900;2024-01-06T02:43:26;6.57;;;4.88;;
50337;SDS011;46221;51.178;5.900;2024-01-06T02:45:53;6.18;;;3.97;;
50337;SDS011;46221;51.178;5.900;2024-01-06T02:48:19;5.80;;;3.97;;
50337;SDS011;46221;51.178;5.900;2024-01-06T02:50:46;7.03;;;4.30;;
50337;SDS011;46221;51.178;5.900;2024-01-06T02:53:12;6.55;;;4.32;;
50337;SDS011;46221;51.178;5.900;2024-01-06T02:55:39;6.78;;;4.72;;
50337;SDS011;46221;51.178;5.900;2024-01-06T02:58:05;6.43;;;4.97;;
50337;SDS011;46221;51.178;5.900;2024-01-06T03:00:32;6.03;;;4.18;;
50337;SDS011;46221;51.178;5.900;2024-01-06T03:02:58;6.93;;;4.18;;
50337;SDS011;46221;51.178;5.900;2024-01-06T03:05:25;6.47;;;4.60;;
50337;SDS011;46221;51.178;5.900;2024-01-06T03:07:51;6.10;;;4.55;;
50337;SDS011;46221;51.178;5.900;2024-01-06T03:10:18;6.40;;;4.72;;
50337;SDS011;46221;51.178;5.900;2024-01-06T03:12:44;7.00;;;5.10;;
50337;SDS011;46221;51.178;5.900;2024-01-06T03:15:11;6.00;;;4.70;;
50337;SDS011;46221;51.178;5.900;2024-01-06T03:17:38;6.97;;;4.72;;
50337;SDS011;46221;51.178;5.900;2024-01-06T03:20:04;6.72;;;5.00;;
50337;SDS011;46221;51.178;5.900;2024-01-06T03:22:31;6.20;;;4.63;;
50337;SDS011;46221;51.178;5.900;2024-01-06T03:24:58;6.90;;;4.35;;
50337;SDS011;46221;51.178;5.900;2024-01-06T03:27:24;7.18;;;4.82;;
50337;SDS011;46221;51.178;5.900;2024-01-06T03:29:51;6.45;;;5.00;;
50337;SDS011;46221;51.178;5.900;2024-01-06T03:32:17;6.50;;;5.35;;
50337;SDS011;46221;51.178;5.900;2024-01-06T03:34:44;7.53;;;5.65;;
50337;SDS011;46221;51.178;5.900;2024-01-06T03:37:10;7.15;;;5.43;;
50337;SDS011;46221;51.178;5.900;2024-01-06T03:39:37;7.57;;;5.55;;
50337;SDS011;46221;51.178;5.900;2024-01-06T03:42:03;6.07;;;4.53;;
50337;SDS011;46221;51.178;5.900;2024-01-06T03:44:30;7.47;;;5.47;;
50337;SDS011;46221;51.178;5.900;2024-01-06T03:46:58;6.75;;;5.00;;
50337;SDS011;46221;51.178;5.900;2024-01-06T03:49:24;7.38;;;4.90;;
50337;SDS011;46221;51.178;5.900;2024-01-06T03:51:51;7.45;;;4.93;;
50337;SDS011;46221;51.178;5.900;2024-01-06T03:54:18;6.55;;;4.47;;
50337;SDS011;46221;51.178;5.900;2024-01-06T03:56:44;5.72;;;4.32;;
50337;SDS011;46221;51.178;5.900;2024-01-06T03:59:11;6.47;;;5.00;;
50337;SDS011;46221;51.178;5.900;2024-01-06T04:01:37;6.85;;;4.95;;
50337;SDS011;46221;51.178;5.900;2024-01-06T04:04:04;7.40;;;5.38;;
50337;SDS011;46221;51.178;5.900;2024-01-06T04:06:31;6.80;;;4.60;;
50337;SDS011;46221;51.178;5.900;2024-01-06T04:08:58;7.57;;;5.18;;
50337;SDS011;46221;51.178;5.900;2024-01-06T04:11:24;7.35;;;4.65;;
50337;SDS011;46221;51.178;5.900;2024-01-06T04:13:51;6.85;;;4.88;;
50337;SDS011;46221;51.178;5.900;2024-01-06T04:16:17;6.65;;;4.60;;
50337;SDS011;46221;51.178;5.900;2024-01-06T04:18:44;6.80;;;4.07;;
50337;SDS011;46221;51.178;5.900;2024-01-06T04:21:10;7.45;;;5.28;;
50337;SDS011;46221;51.178;5.900;2024-01-06T04:23:38;7.32;;;5.00;;
50337;SDS011;46221;51.178;5.900;2024-01-06T04:26:04;7.70;;;5.50;;
50337;SDS011;46221;51.178;5.900;2024-01-06T04:28:31;6.32;;;5.03;;
50337;SDS011;46221;51.178;5.900;2024-01-06T04:30:57;7.68;;;5.72;;
50337;SDS011;46221;51.178;5.900;2024-01-06T04:33:24;6.80;;;5.25;;
50337;SDS011;46221;51.178;5.900;2024-01-06T04:35:50;8.02;;;5.63;;
50337;SDS011;46221;51.178;5.900;2024-01-06T04:38:17;6.97;;;4.85;;
50337;SDS011;46221;51.178;5.900;2024-01-06T04:40:43;7.45;;;5.28;;
50337;SDS011;46221;51.178;5.900;2024-01-06T04:43:09;7.38;;;5.07;;
50337;SDS011;46221;51.178;5.900;2024-01-06T04:45:36;6.55;;;5.18;;
50337;SDS011;46221;51.178;5.900;2024-01-06T04:48:03;7.28;;;4.90;;
50337;SDS011;46221;51.178;5.900;2024-01-06T04:50:30;6.82;;;5.30;;
50337;SDS011;46221;51.178;5.900;2024-01-06T04:52:57;4.90;;;3.80;;
50337;SDS011;46221;51.178;5.900;2024-01-06T04:55:23;5.53;;;4.13;;
50337;SDS011;46221;51.178;5.900;2024-01-06T04:57:49;6.25;;;4.85;;
50337;SDS011;46221;51.178;5.900;2024-01-06T05:00:16;6.72;;;5.07;;
50337;SDS011;46221;51.178;5.900;2024-01-06T05:02:43;6.05;;;4.55;;
50337;SDS011;46221;51.178;5.900;2024-01-06T05:05:10;5.65;;;4.22;;
50337;SDS011;46221;51.178;5.900;2024-01-06T05:07:36;6.97;;;5.07;;
50337;SDS011;46221;51.178;5.900;2024-01-06T05:10:02;5.95;;;4.57;;
50337;SDS011;46221;51.178;5.900;2024-01-06T05:12:29;7.00;;;4.45;;
50337;SDS011;46221;51.178;5.900;2024-01-06T05:14:56;5.80;;;4.22;;
50337;SDS011;46221;51.178;5.900;2024-01-06T05:17:22;5.40;;;3.88;;
50337;SDS011;46221;51.178;5.900;2024-01-06T05:19:48;6.03;;;4.53;;
50337;SDS011;46221;51.178;5.900;2024-01-06T05:22:15;6.30;;;4.43;;
50337;SDS011;46221;51.178;5.900;2024-01-06T05:24:41;6.28;;;4.50;;
50337;SDS011;46221;51.178;5.900;2024-01-06T05:27:08;5.80;;;4.35;;
50337;SDS011;46221;51.178;5.900;2024-01-06T05:29:38;5.82;;;4.10;;
50337;SDS011;46221;51.178;5.900;2024-01-06T05:32:04;7.25;;;4.38;;
50337;SDS011;46221;51.178;5.900;2024-01-06T05:34:31;5.13;;;3.90;;
50337;SDS011;46221;51.178;5.900;2024-01-06T05:36:58;5.55;;;3.85;;
50337;SDS011;46221;51.178;5.900;2024-01-06T05:39:24;5.22;;;3.40;;
50337;SDS011;46221;51.178;5.900;2024-01-06T05:41:51;5.10;;;3.95;;
50337;SDS011;46221;51.178;5.900;2024-01-06T05:44:18;5.00;;;3.63;;
50337;SDS011;46221;51.178;5.900;2024-01-06T05:46:44;4.10;;;2.95;;
50337;SDS011;46221;51.178;5.900;2024-01-06T05:49:11;5.47;;;3.30;;
50337;SDS011;46221;51.178;5.900;2024-01-06T05:51:43;4.68;;;3.47;;
50337;SDS011;46221;51.178;5.900;2024-01-06T05:54:10;5.55;;;4.18;;
50337;SDS011;46221;51.178;5.900;2024-01-06T05:56:36;5.35;;;3.88;;
50337;SDS011;46221;51.178;5.900;2024-01-06T05:59:02;5.22;;;3.58;;
50337;SDS011;46221;51.178;5.900;2024-01-06T06:01:29;4.88;;;3.50;;
50337;SDS011;46221;51.178;5.900;2024-01-06T06:03:55;5.03;;;3.67;;
50337;SDS011;46221;51.178;5.900;2024-01-06T06:06:22;5.15;;;3.78;;
50337;SDS011;46221;51.178;5.900;2024-01-06T06:08:48;5.10;;;3.88;;
50337;SDS011;46221;51.178;5.900;2024-01-06T06:11:15;4.97;;;3.53;;
50337;SDS011;46221;51.178;5.900;2024-01-06T06:13:41;5.22;;;3.38;;
50337;SDS011;46221;51.178;5.900;2024-01-06T06:16:11;5.32;;;3.30;;
50337;SDS011;46221;51.178;5.900;2024-01-06T06:18:39;4.18;;;3.30;;
50337;SDS011;46221;51.178;5.900;2024-01-06T06:21:06;5.97;;;2.97;;
50337;SDS011;46221;51.178;5.900;2024-01-06T06:23:33;4.45;;;3.08;;
50337;SDS011;46221;51.178;5.900;2024-01-06T06:26:04;5.60;;;3.67;;
50337;SDS011;46221;51.178;5.900;2024-01-06T06:28:30;5.18;;;3.28;;
50337;SDS011;46221;51.178;5.900;2024-01-06T06:30:57;4.68;;;3.42;;
50337;SDS011;46221;51.178;5.900;2024-01-06T06:33:24;4.65;;;3.08;;
50337;SDS011;46221;51.178;5.900;2024-01-06T06:35:50;3.88;;;2.80;;
50337;SDS011;46221;51.178;5.900;2024-01-06T06:38:17;4.57;;;2.83;;
50337;SDS011;46221;51.178;5.900;2024-01-06T06:40:44;4.50;;;3.25;;
50337;SDS011;46221;51.178;5.900;2024-01-06T06:43:10;3.78;;;2.90;;
50337;SDS011;46221;51.178;5.900;2024-01-06T06:45:37;3.90;;;2.70;;
50337;SDS011;46221;51.178;5.900;2024-01-06T06:48:03;4.25;;;2.90;;
50337;SDS011;46221;51.178;5.900;2024-01-06T06:50:30;4.13;;;3.00;;
50337;SDS011;46221;51.178;5.900;2024-01-06T06:52:57;3.58;;;2.53;;
50337;SDS011;46221;51.178;5.900;2024-01-06T06:55:23;4.65;;;3.28;;
50337;SDS011;46221;51.178;5.900;2024-01-06T06:57:49;3.95;;;2.90;;
50337;SDS011;46221;51.178;5.900;2024-01-06T07:00:16;3.72;;;2.50;;
50337;SDS011;46221;51.178;5.900;2024-01-06T07:02:43;4.75;;;3.28;;
50337;SDS011;46221;51.178;5.900;2024-01-06T07:05:10;6.15;;;2.90;;
50337;SDS011;46221;51.178;5.900;2024-01-06T07:07:36;4.65;;;3.25;;
50337;SDS011;46221;51.178;5.900;2024-01-06T07:10:04;3.80;;;2.75;;
50337;SDS011;46221;51.178;5.900;2024-01-06T07:12:31;3.70;;;2.90;;
50337;SDS011;46221;51.178;5.900;2024-01-06T07:14:58;3.90;;;2.75;;
50337;SDS011;46221;51.178;5.900;2024-01-06T07:17:30;3.70;;;2.60;;
50337;SDS011;46221;51.178;5.900;2024-01-06T07:19:56;3.90;;;2.95;;
50337;SDS011;46221;51.178;5.900;2024-01-06T07:22:23;4.40;;;3.08;;
50337;SDS011;46221;51.178;5.900;2024-01-06T07:24:49;5.93;;;2.75;;
50337;SDS011;46221;51.178;5.900;2024-01-06T07:27:16;3.72;;;2.88;;
50337;SDS011;46221;51.178;5.900;2024-01-06T07:29:42;3.28;;;2.38;;
50337;SDS011;46221;51.178;5.900;2024-01-06T07:32:09;4.63;;;2.85;;
50337;SDS011;46221;51.178;5.900;2024-01-06T07:34:35;4.10;;;2.50;;
50337;SDS011;46221;51.178;5.900;2024-01-06T07:37:02;4.20;;;2.70;;
50337;SDS011;46221;51.178;5.900;2024-01-06T07:39:28;3.72;;;2.45;;
50337;SDS011;46221;51.178;5.900;2024-01-06T07:41:55;4.20;;;2.95;;
50337;SDS011;46221;51.178;5.900;2024-01-06T07:44:21;4.10;;;2.83;;
50337;SDS011;46221;51.178;5.900;2024-01-06T07:46:51;3.40;;;2.28;;
50337;SDS011;46221;51.178;5.900;2024-01-06T07:49:18;4.68;;;2.60;;
50337;SDS011;46221;51.178;5.900;2024-01-06T07:51:45;4.15;;;2.47;;
50337;SDS011;46221;51.178;5.900;2024-01-06T07:54:11;3.95;;;2.50;;
50337;SDS011;46221;51.178;5.900;2024-01-06T07:56:38;4.60;;;2.30;;
50337;SDS011;46221;51.178;5.900;2024-01-06T07:59:05;6.93;;;2.95;;
50337;SDS011;46221;51.178;5.900;2024-01-06T08:01:31;5.40;;;2.65;;
50337;SDS011;46221;51.178;5.900;2024-01-06T08:03:58;4.65;;;2.40;;
50337;SDS011;46221;51.178;5.900;2024-01-06T08:06:25;4.18;;;2.80;;
50337;SDS011;46221;51.178;5.900;2024-01-06T08:08:53;5.00;;;2.40;;
50337;SDS011;46221;51.178;5.900;2024-01-06T08:11:21;3.90;;;2.47;;
50337;SDS011;46221;51.178;5.900;2024-01-06T08:13:48;5.13;;;2.65;;
50337;SDS011;46221;51.178;5.900;2024-01-06T08:16:15;5.30;;;2.97;;
50337;SDS011;46221;51.178;5.900;2024-01-06T08:18:43;4.28;;;2.45;;
50337;SDS011;46221;51.178;5.900;2024-01-06T08:21:11;4.22;;;2.40;;
50337;SDS011;46221;51.178;5.900;2024-01-06T08:23:39;5.18;;;2.20;;
50337;SDS011;46221;51.178;5.900;2024-01-06T08:26:05;4.90;;;2.10;;
50337;SDS011;46221;51.178;5.900;2024-01-06T08:28:35;5.53;;;2.60;;
50337;SDS011;46221;51.178;5.900;2024-01-06T08:31:01;4.53;;;2.45;;
50337;SDS011;46221;51.178;5.900;2024-01-06T08:33:28;4.05;;;2.38;;
50337;SDS011;46221;51.178;5.900;2024-01-06T08:35:55;4.93;;;2.30;;
50337;SDS011;46221;51.178;5.900;2024-01-06T08:38:21;3.05;;;2.10;;
50337;SDS011;46221;51.178;5.900;2024-01-06T08:40:48;4.45;;;2.30;;
50337;SDS011;46221;51.178;5.900;2024-01-06T08:43:16;4.97;;;2.60;;
50337;SDS011;46221;51.178;5.900;2024-01-06T08:45:43;4.97;;;2.90;;
50337;SDS011;46221;51.178;5.900;2024-01-06T08:48:09;4.00;;;2.60;;
50337;SDS011;46221;51.178;5.900;2024-01-06T08:50:38;3.67;;;2.50;;
50337;SDS011;46221;51.178;5.900;2024-01-06T08:53:04;4.25;;;2.47;;
50337;SDS011;46221;51.178;5.900;2024-01-06T08:55:31;4.78;;;2.25;;
50337;SDS011;46221;51.178;5.900;2024-01-06T08:57:57;4.15;;;2.20;;
50337;SDS011;46221;51.178;5.900;2024-01-06T09:00:24;3.78;;;2.40;;
50337;SDS011;46221;51.178;5.900;2024-01-06T09:02:51;3.50;;;2.17;;
50337;SDS011;46221;51.178;5.900;2024-01-06T09:05:17;5.28;;;2.15;;
50337;SDS011;46221;51.178;5.900;2024-01-06T09:07:43;5.03;;;2.00;;
50337;SDS011;46221;51.178;5.900;2024-01-06T09:10:20;3.75;;;2.25;;
50337;SDS011;46221;51.178;5.900;2024-01-06T09:12:46;4.05;;;2.13;;
50337;SDS011;46221;51.178;5.900;2024-01-06T09:15:13;3.80;;;2.25;;
50337;SDS011;46221;51.178;5.900;2024-01-06T09:17:39;3.78;;;1.85;;
50337;SDS011;46221;51.178;5.900;2024-01-06T09:20:06;4.22;;;2.13;;
50337;SDS011;46221;51.178;5.900;2024-01-06T09:22:33;3.85;;;2.10;;
50337;SDS011;46221;51.178;5.900;2024-01-06T09:24:59;3.83;;;1.90;;
50337;SDS011;46221;51.178;5.900;2024-01-06T09:27:26;5.20;;;1.95;;
50337;SDS011;46221;51.178;5.900;2024-01-06T09:29:52;14.10;;;2.80;;
50337;SDS011;46221;51.178;5.900;2024-01-06T09:32:19;3.10;;;2.10;;
50337;SDS011;46221;51.178;5.900;2024-01-06T09:34:46;3.72;;;2.05;;
50337;SDS011;46221;51.178;5.900;2024-01-06T09:37:12;4.25;;;2.13;;
50337;SDS011;46221;51.178;5.900;2024-01-06T09:39:40;3.88;;;2.15;;
50337;SDS011;46221;51.178;5.900;2024-01-06T09:42:06;3.78;;;2.40;;
50337;SDS011;46221;51.178;5.900;2024-01-06T09:44:33;2.50;;;1.90;;
50337;SDS011;46221;51.178;5.900;2024-01-06T09:46:59;4.35;;;2.50;;
50337;SDS011;46221;51.178;5.900;2024-01-06T09:49:28;3.10;;;2.10;;
50337;SDS011;46221;51.178;5.900;2024-01-06T09:51:56;3.20;;;2.30;;
50337;SDS011;46221;51.178;5.900;2024-01-06T09:54:24;3.50;;;2.13;;
50337;SDS011;46221;51.178;5.900;2024-01-06T09:56:51;3.58;;;2.55;;
50337;SDS011;46221;51.178;5.900;2024-01-06T09:59:18;4.20;;;2.25;;
50337;SDS011;46221;51.178;5.900;2024-01-06T10:01:46;3.40;;;2.38;;
50337;SDS011;46221;51.178;5.900;2024-01-06T10:04:12;3.88;;;2.50;;
50337;SDS011;46221;51.178;5.900;2024-01-06T10:06:44;4.85;;;2.90;;
50337;SDS011;46221;51.178;5.900;2024-01-06T10:09:11;4.55;;;2.35;;
50337;SDS011;46221;51.178;5.900;2024-01-06T10:11:38;6.18;;;3.03;;
50337;SDS011;46221;51.178;5.900;2024-01-06T10:14:07;3.83;;;2.55;;
50337;SDS011;46221;51.178;5.900;2024-01-06T10:16:34;5.85;;;2.63;;
50337;SDS011;46221;51.178;5.900;2024-01-06T10:19:02;3.88;;;2.10;;
50337;SDS011;46221;51.178;5.900;2024-01-06T10:21:29;4.07;;;2.35;;
50337;SDS011;46221;51.178;5.900;2024-01-06T10:23:58;5.38;;;2.65;;
50337;SDS011;46221;51.178;5.900;2024-01-06T10:26:24;4.65;;;2.15;;
50337;SDS011;46221;51.178;5.900;2024-01-06T10:28:51;3.78;;;2.53;;
50337;SDS011;46221;51.178;5.900;2024-01-06T10:31:18;3.75;;;2.28;;
50337;SDS011;46221;51.178;5.900;2024-01-06T10:33:46;3.60;;;2.30;;
50337;SDS011;46221;51.178;5.900;2024-01-06T10:36:15;5.32;;;2.70;;
50337;SDS011;46221;51.178;5.900;2024-01-06T10:38:44;4.38;;;2.33;;
50337;SDS011;46221;51.178;5.900;2024-01-06T10:41:11;3.95;;;2.50;;
50337;SDS011;46221;51.178;5.900;2024-01-06T10:43:37;6.00;;;2.70;;
50337;SDS011;46221;51.178;5.900;2024-01-06T10:46:07;4.38;;;2.70;;
50337;SDS011;46221;51.178;5.900;2024-01-06T10:48:37;4.95;;;2.60;;
50337;SDS011;46221;51.178;5.900;2024-01-06T10:51:11;3.95;;;2.45;;
50337;SDS011;46221;51.178;5.900;2024-01-06T10:53:41;4.60;;;2.97;;
50337;SDS011;46221;51.178;5.900;2024-01-06T10:56:09;5.00;;;2.75;;
50337;SDS011;46221;51.178;5.900;2024-01-06T10:58:45;5.18;;;3.13;;
50337;SDS011;46221;51.178;5.900;2024-01-06T11:01:13;6.13;;;3.15;;
50337;SDS011;46221;51.178;5.900;2024-01-06T11:03:44;5.53;;;2.60;;
50337;SDS011;46221;51.178;5.900;2024-01-06T11:06:12;7.85;;;3.28;;
50337;SDS011;46221;51.178;5.900;2024-01-06T11:08:44;6.25;;;3.35;;
50337;SDS011;46221;51.178;5.900;2024-01-06T11:13:42;5.57;;;3.47;;
50337;SDS011;46221;51.178;5.900;2024-01-06T11:19:01;4.45;;;3.13;;
50337;SDS011;46221;51.178;5.900;2024-01-06T11:21:33;4.82;;;3.15;;
50337;SDS011;46221;51.178;5.900;2024-01-06T11:26:32;5.43;;;3.33;;
50337;SDS011;46221;51.178;5.900;2024-01-06T11:29:05;4.90;;;2.88;;
50337;SDS011;46221;51.178;5.900;2024-01-06T11:31:33;5.57;;;3.63;;
50337;SDS011;46221;51.178;5.900;2024-01-06T11:34:34;4.38;;;3.20;;
50337;SDS011;46221;51.178;5.900;2024-01-06T11:36:53;6.15;;;3.63;;
50337;SDS011;46221;51.178;5.900;2024-01-06T11:39:40;5.65;;;3.50;;
50337;SDS011;46221;51.178;5.900;2024-01-06T11:42:09;6.05;;;3.70;;
50337;SDS011;46221;51.178;5.900;2024-01-06T11:44:39;8.30;;;3.50;;
50337;SDS011;46221;51.178;5.900;2024-01-06T11:47:06;5.55;;;3.55;;
50337;SDS011;46221;51.178;5.900;2024-01-06T11:49:32;6.32;;;3.75;;
50337;SDS011;46221;51.178;5.900;2024-01-06T11:52:00;5.50;;;3.55;;
50337;SDS011;46221;51.178;5.900;2024-01-06T11:54:26;6.82;;;3.60;;
50337;SDS011;46221;51.178;5.900;2024-01-06T11:56:56;7.13;;;3.83;;
50337;SDS011;46221;51.178;5.900;2024-01-06T11:59:25;5.68;;;4.20;;
50337;SDS011;46221;51.178;5.900;2024-01-06T12:01:52;5.90;;;3.28;;
50337;SDS011;46221;51.178;5.900;2024-01-06T12:04:19;6.07;;;3.38;;
50337;SDS011;46221;51.178;5.900;2024-01-06T12:06:47;5.35;;;3.67;;
50337;SDS011;46221;51.178;5.900;2024-01-06T12:09:16;5.80;;;3.63;;
50337;SDS011;46221;51.178;5.900;2024-01-06T12:11:45;5.80;;;3.55;;
50337;SDS011;46221;51.178;5.900;2024-01-06T12:14:16;5.15;;;3.80;;
50337;SDS011;46221;51.178;5.900;2024-01-06T12:16:47;5.50;;;3.67;;
50337;SDS011;46221;51.178;5.900;2024-01-06T12:19:13;5.60;;;3.60;;
50337;SDS011;46221;51.178;5.900;2024-01-06T12:21:40;4.93;;;3.42;;
50337;SDS011;46221;51.178;5.900;2024-01-06T12:24:12;7.35;;;5.22;;
50337;SDS011;46221;51.178;5.900;2024-01-06T12:26:40;6.10;;;4.32;;
50337;SDS011;46221;51.178;5.900;2024-01-06T12:29:08;6.03;;;4.10;;
50337;SDS011;46221;51.178;5.900;2024-01-06T12:31:48;6.43;;;4.57;;
50337;SDS011;46221;51.178;5.900;2024-01-06T12:34:16;7.32;;;4.78;;
50337;SDS011;46221;51.178;5.900;2024-01-06T12:36:47;5.53;;;4.22;;
50337;SDS011;46221;51.178;5.900;2024-01-06T12:39:14;5.82;;;4.03;;
50337;SDS011;46221;51.178;5.900;2024-01-06T12:41:46;5.88;;;3.97;;
50337;SDS011;46221;51.178;5.900;2024-01-06T12:44:12;5.28;;;4.22;;
50337;SDS011;46221;51.178;5.900;2024-01-06T12:46:39;6.90;;;4.25;;
50337;SDS011;46221;51.178;5.900;2024-01-06T12:49:05;5.43;;;3.58;;
50337;SDS011;46221;51.178;5.900;2024-01-06T12:51:32;5.88;;;3.92;;
50337;SDS011;46221;51.178;5.900;2024-01-06T12:53:59;7.15;;;4.50;;
50337;SDS011;46221;51.178;5.900;2024-01-06T12:56:25;6.15;;;3.45;;
50337;SDS011;46221;51.178;5.900;2024-01-06T12:58:52;5.38;;;3.53;;
50337;SDS011;46221;51.178;5.900;2024-01-06T13:01:19;5.93;;;3.97;;
50337;SDS011;46221;51.178;5.900;2024-01-06T13:03:46;4.82;;;3.03;;
50337;SDS011;46221;51.178;5.900;2024-01-06T13:06:13;4.63;;;3.03;;
50337;SDS011;46221;51.178;5.900;2024-01-06T13:08:40;8.15;;;3.60;;
50337;SDS011;46221;51.178;5.900;2024-01-06T13:11:07;4.78;;;3.10;;
50337;SDS011;46221;51.178;5.900;2024-01-06T13:13:34;4.45;;;3.10;;
50337;SDS011;46221;51.178;5.900;2024-01-06T13:16:00;4.90;;;3.17;;
50337;SDS011;46221;51.178;5.900;2024-01-06T13:18:29;5.55;;;2.95;;
50337;SDS011;46221;51.178;5.900;2024-01-06T13:20:56;4.82;;;3.15;;
50337;SDS011;46221;51.178;5.900;2024-01-06T13:23:23;5.13;;;2.80;;
50337;SDS011;46221;51.178;5.900;2024-01-06T13:25:49;4.65;;;3.28;;
50337;SDS011;46221;51.178;5.900;2024-01-06T13:28:15;4.72;;;3.20;;
50337;SDS011;46221;51.178;5.900;2024-01-06T13:30:42;5.18;;;3.63;;
50337;SDS011;46221;51.178;5.900;2024-01-06T13:33:08;5.63;;;3.50;;
50337;SDS011;46221;51.178;5.900;2024-01-06T13:35:36;5.10;;;3.53;;
50337;SDS011;46221;51.178;5.900;2024-01-06T13:38:03;5.47;;;3.97;;
50337;SDS011;46221;51.178;5.900;2024-01-06T13:40:33;5.93;;;3.67;;
50337;SDS011;46221;51.178;5.900;2024-01-06T13:42:59;5.47;;;4.05;;
50337;SDS011;46221;51.178;5.900;2024-01-06T13:45:26;5.05;;;3.47;;
50337;SDS011;46221;51.178;5.900;2024-01-06T13:47:53;6.05;;;3.95;;
50337;SDS011;46221;51.178;5.900;2024-01-06T13:50:20;7.60;;;4.53;;
50337;SDS011;46221;51.178;5.900;2024-01-06T13:52:46;6.45;;;4.20;;
50337;SDS011;46221;51.178;5.900;2024-01-06T13:55:14;6.20;;;3.80;;
50337;SDS011;46221;51.178;5.900;2024-01-06T13:57:41;7.43;;;3.70;;
50337;SDS011;46221;51.178;5.900;2024-01-06T14:00:08;5.85;;;3.63;;
50337;SDS011;46221;51.178;5.900;2024-01-06T14:02:35;7.00;;;3.45;;
50337;SDS011;46221;51.178;5.900;2024-01-06T14:05:01;5.65;;;3.38;;
50337;SDS011;46221;51.178;5.900;2024-01-06T14:07:28;5.53;;;2.97;;
50337;SDS011;46221;51.178;5.900;2024-01-06T14:09:55;5.20;;;3.50;;
50337;SDS011;46221;51.178;5.900;2024-01-06T14:12:21;8.25;;;3.72;;
50337;SDS011;46221;51.178;5.900;2024-01-06T14:14:48;5.40;;;3.85;;
50337;SDS011;46221;51.178;5.900;2024-01-06T14:17:15;6.75;;;3.30;;
50337;SDS011;46221;51.178;5.900;2024-01-06T14:19:41;6.07;;;3.13;;
50337;SDS011;46221;51.178;5.900;2024-01-06T14:22:13;5.35;;;3.92;;
50337;SDS011;46221;51.178;5.900;2024-01-06T14:24:41;5.63;;;3.60;;
50337;SDS011;46221;51.178;5.900;2024-01-06T14:27:07;5.82;;;3.30;;
50337;SDS011;46221;51.178;5.900;2024-01-06T14:29:33;6.20;;;3.40;;
50337;SDS011;46221;51.178;5.900;2024-01-06T14:32:00;4.93;;;3.53;;
50337;SDS011;46221;51.178;5.900;2024-01-06T14:34:28;5.75;;;3.80;;
50337;SDS011;46221;51.178;5.900;2024-01-06T14:36:57;5.55;;;4.00;;
50337;SDS011;46221;51.178;5.900;2024-01-06T14:39:23;5.13;;;3.45;;
50337;SDS011;46221;51.178;5.900;2024-01-06T14:41:50;5.47;;;3.55;;
50337;SDS011;46221;51.178;5.900;2024-01-06T14:44:18;5.43;;;3.47;;
50337;SDS011;46221;51.178;5.900;2024-01-06T14:46:47;5.85;;;3.33;;
50337;SDS011;46221;51.178;5.900;2024-01-06T14:49:14;5.38;;;3.22;;
50337;SDS011;46221;51.178;5.900;2024-01-06T14:51:41;5.68;;;3.45;;
50337;SDS011;46221;51.178;5.900;2024-01-06T14:54:08;5.55;;;3.95;;
50337;SDS011;46221;51.178;5.900;2024-01-06T14:56:38;5.38;;;2.92;;